Time;durP1;ratioP1;P1;durP2;ratioP2;P2;SDS_P1;SDS_P2;PMS_P1;PMS_P2;Temp;Humidity;BMP_temperature;BMP_pressure;BME280_temperature;BME280_humidity;BME280_pressure;Samples;Min_cycle;Max_cycle;Signal;HPM_P1;HPM_P2
2021/11/03 00:02:16;;;;;;;122.95;60.90;;;;;;;;;;5053732;28;20495;-61
2021/11/03 00:04:42;;;;;;;124.35;61.53;;;;;;;;;;5053248;28;20029;-61
2021/11/03 00:07:12;;;;;;;111.45;55.55;;;;;;;;;;5054030;28;20107;-61
2021/11/03 00:09:39;;;;;;;103.55;53.10;;;;;;;;;;5053268;28;20056;-62
2021/11/03 00:12:10;;;;;;;133.70;60.08;;;;;;;;;;5053174;28;20428;-61
2021/11/03 00:14:37;;;;;;;122.63;58.67;;;;;;;;;;5053970;28;20111;-62
2021/11/03 00:17:03;;;;;;;107.32;51.88;;;;;;;;;;5053643;28;20029;-62
2021/11/03 00:19:29;;;;;;;92.47;46.53;;;;;;;;;;5053425;28;20100;-62
2021/11/03 00:21:55;;;;;;;73.32;38.90;;;;;;;;;;5053411;28;20032;-62
2021/11/03 00:24:22;;;;;;;67.57;37.55;;;;;;;;;;5051883;28;20487;-62
2021/11/03 00:26:48;;;;;;;66.30;37.97;;;;;;;;;;5053072;28;20524;-62
2021/11/03 00:29:14;;;;;;;77.40;41.13;;;;;;;;;;5051771;28;20104;-61
2021/11/03 00:31:40;;;;;;;69.88;38.97;;;;;;;;;;5051809;28;20132;-61
2021/11/03 00:34:07;;;;;;;65.50;38.58;;;;;;;;;;5053636;28;20025;-62
2021/11/03 00:36:33;;;;;;;64.53;36.05;;;;;;;;;;5053581;28;20086;-62
2021/11/03 00:39:00;;;;;;;60.55;32.72;;;;;;;;;;5053122;28;20482;-62
2021/11/03 00:41:26;;;;;;;57.70;33.08;;;;;;;;;;5062180;28;20481;-62
2021/11/03 00:43:53;;;;;;;51.25;29.52;;;;;;;;;;5061040;28;20104;-62
2021/11/03 00:46:19;;;;;;;51.97;31.30;;;;;;;;;;5062657;28;20078;-62
2021/11/03 00:48:46;;;;;;;50.17;30.83;;;;;;;;;;5062053;28;20036;-61
2021/11/03 00:51:13;;;;;;;55.63;32.03;;;;;;;;;;5060464;28;21249;-61
2021/11/03 00:53:39;;;;;;;60.33;33.65;;;;;;;;;;5058595;28;20013;-61
2021/11/03 00:56:06;;;;;;;55.03;33.60;;;;;;;;;;5061945;28;20032;-62
2021/11/03 00:58:32;;;;;;;53.10;30.25;;;;;;;;;;5062433;28;20099;-62
2021/11/03 01:00:58;;;;;;;55.35;30.80;;;;;;;;;;5058200;28;20021;-61
2021/11/03 01:03:24;;;;;;;55.20;30.98;;;;;;;;;;5061675;28;20021;-62
2021/11/03 01:05:51;;;;;;;54.08;33.90;;;;;;;;;;5055251;28;20029;-62
2021/11/03 01:08:17;;;;;;;49.35;30.85;;;;;;;;;;5052227;28;20040;-62
2021/11/03 01:10:46;;;;;;;52.60;29.95;;;;;;;;;;5051547;28;20126;-62
2021/11/03 01:13:13;;;;;;;51.22;31.17;;;;;;;;;;5052909;28;20066;-62
2021/11/03 01:15:39;;;;;;;55.10;30.02;;;;;;;;;;5052873;28;20031;-62
2021/11/03 01:18:06;;;;;;;53.17;32.28;;;;;;;;;;5053188;28;20021;-62
2021/11/03 01:20:33;;;;;;;46.22;30.58;;;;;;;;;;5052802;28;20029;-62
2021/11/03 01:22:59;;;;;;;66.43;41.85;;;;;;;;;;5052866;28;20112;-62
2021/11/03 01:25:26;;;;;;;56.10;34.70;;;;;;;;;;5052659;28;20033;-62
2021/11/03 01:27:52;;;;;;;59.22;37.25;;;;;;;;;;5052781;28;20079;-62
2021/11/03 01:30:19;;;;;;;67.65;40.95;;;;;;;;;;5051141;28;20047;-62
2021/11/03 01:32:46;;;;;;;64.60;40.05;;;;;;;;;;5052777;28;20068;-62
2021/11/03 01:35:13;;;;;;;58.50;37.58;;;;;;;;;;5052746;28;20035;-62
2021/11/03 01:37:40;;;;;;;55.42;33.92;;;;;;;;;;5052712;28;20025;-62
2021/11/03 01:40:07;;;;;;;55.42;35.90;;;;;;;;;;5051337;28;20029;-62
2021/11/03 01:42:34;;;;;;;61.42;37.33;;;;;;;;;;5052852;28;20028;-62
2021/11/03 01:45:01;;;;;;;47.70;31.52;;;;;;;;;;5052513;28;20043;-62
2021/11/03 01:47:42;;;;;;;43.30;27.65;;;;;;;;;;5052618;28;20027;-62
2021/11/03 01:50:13;;;;;;;33.75;20.08;;;;;;;;;;5052259;28;20396;-62
2021/11/03 01:52:41;;;;;;;24.60;18.42;;;;;;;;;;5052630;28;20029;-62
2021/11/03 01:55:09;;;;;;;29.63;19.00;;;;;;;;;;5052197;28;20029;-62
2021/11/03 01:57:39;;;;;;;28.83;18.30;;;;;;;;;;5052531;28;20024;-62
2021/11/03 02:00:11;;;;;;;32.88;17.98;;;;;;;;;;5052440;28;20029;-62
2021/11/03 02:02:37;;;;;;;31.55;19.17;;;;;;;;;;5052246;28;20083;-62
2021/11/03 02:05:06;;;;;;;28.10;18.38;;;;;;;;;;5052361;28;20041;-62
2021/11/03 02:07:33;;;;;;;33.45;18.25;;;;;;;;;;5051180;28;20044;-62
2021/11/03 02:10:00;;;;;;;37.00;19.65;;;;;;;;;;5052377;28;20025;-62
2021/11/03 02:12:28;;;;;;;27.90;20.00;;;;;;;;;;5052322;28;20075;-62
2021/11/03 02:14:55;;;;;;;26.95;18.33;;;;;;;;;;5050740;28;20031;-62
2021/11/03 02:17:22;;;;;;;35.08;21.23;;;;;;;;;;5052342;28;20017;-62
2021/11/03 02:19:50;;;;;;;34.63;20.40;;;;;;;;;;5052804;28;20108;-62
2021/11/03 02:22:23;;;;;;;28.67;19.42;;;;;;;;;;5054577;28;20036;-62
2021/11/03 02:24:53;;;;;;;27.10;18.27;;;;;;;;;;5055991;28;20142;-62
2021/11/03 02:27:19;;;;;;;24.95;17.88;;;;;;;;;;5055826;28;20109;-62
2021/11/03 02:29:45;;;;;;;23.73;17.20;;;;;;;;;;5054423;28;20032;-62
2021/11/03 02:32:14;;;;;;;22.60;16.27;;;;;;;;;;5055240;28;20103;-61
2021/11/03 02:34:40;;;;;;;21.65;15.27;;;;;;;;;;5055693;28;20465;-61
2021/11/03 02:37:41;;;;;;;23.85;17.75;;;;;;;;;;5055668;28;20064;-61
2021/11/03 02:40:19;;;;;;;24.05;16.27;;;;;;;;;;4958182;28;20478;-61
2021/11/03 02:42:50;;;;;;;24.73;17.10;;;;;;;;;;4974444;28;20081;-62
2021/11/03 02:45:29;;;;;;;25.08;17.58;;;;;;;;;;4974282;28;20065;-62
2021/11/03 02:47:56;;;;;;;25.80;17.60;;;;;;;;;;4974294;28;20038;-62
2021/11/03 02:50:23;;;;;;;31.50;17.80;;;;;;;;;;4957946;28;20549;-62
2021/11/03 02:52:49;;;;;;;26.83;19.17;;;;;;;;;;4974207;28;20066;-62
2021/11/03 02:55:15;;;;;;;26.10;18.30;;;;;;;;;;4974089;28;20031;-62
2021/11/03 02:57:41;;;;;;;26.70;18.48;;;;;;;;;;4957905;28;20483;-62
2021/11/03 03:00:10;;;;;;;28.85;20.05;;;;;;;;;;4974037;28;20035;-62
2021/11/03 03:02:36;;;;;;;29.30;18.27;;;;;;;;;;4974236;28;20072;-61
2021/11/03 03:05:02;;;;;;;27.73;19.23;;;;;;;;;;4973895;28;20129;-61
2021/11/03 03:07:28;;;;;;;30.05;18.70;;;;;;;;;;4973868;28;20484;-62
2021/11/03 03:09:54;;;;;;;30.67;19.42;;;;;;;;;;4974163;28;20050;-62
2021/11/03 03:12:22;;;;;;;28.77;19.05;;;;;;;;;;4957527;28;20041;-62
2021/11/03 03:14:50;;;;;;;30.40;17.60;;;;;;;;;;5038753;28;20083;-62
2021/11/03 03:17:17;;;;;;;27.05;17.67;;;;;;;;;;5055171;28;20361;-62
2021/11/03 03:19:44;;;;;;;28.08;17.92;;;;;;;;;;5053519;28;20116;-62
2021/11/03 03:22:12;;;;;;;28.65;18.77;;;;;;;;;;5053446;28;20075;-62
2021/11/03 03:24:38;;;;;;;25.15;17.13;;;;;;;;;;5054919;28;20039;-62
2021/11/03 03:27:04;;;;;;;24.52;17.65;;;;;;;;;;5054957;28;20029;-62
2021/11/03 03:29:30;;;;;;;26.73;17.17;;;;;;;;;;5054594;28;20029;-62
2021/11/03 03:31:57;;;;;;;23.55;17.05;;;;;;;;;;5053606;28;20639;-62
2021/11/03 03:34:24;;;;;;;26.38;17.23;;;;;;;;;;5053203;28;20052;-62
2021/11/03 03:36:51;;;;;;;26.67;18.42;;;;;;;;;;5054526;28;20390;-62
2021/11/03 03:39:19;;;;;;;25.90;17.65;;;;;;;;;;5054176;28;20480;-62
2021/11/03 03:41:48;;;;;;;27.77;18.35;;;;;;;;;;5053062;28;20055;-62
2021/11/03 03:44:14;;;;;;;28.52;18.02;;;;;;;;;;5054315;28;20092;-62
2021/11/03 03:46:40;;;;;;;29.33;18.85;;;;;;;;;;5054176;28;20036;-62
2021/11/03 03:49:07;;;;;;;26.55;18.30;;;;;;;;;;5052998;28;20024;-62
2021/11/03 03:51:33;;;;;;;24.98;17.83;;;;;;;;;;5054179;28;20021;-62
2021/11/03 03:54:00;;;;;;;28.67;19.17;;;;;;;;;;5054075;28;20107;-62
2021/11/03 03:56:26;;;;;;;25.20;17.73;;;;;;;;;;5052512;28;20047;-62
2021/11/03 03:58:52;;;;;;;26.75;19.02;;;;;;;;;;5054109;28;20029;-62
2021/11/03 04:01:20;;;;;;;27.85;19.48;;;;;;;;;;5052707;28;20025;-61
2021/11/03 04:03:47;;;;;;;31.55;20.10;;;;;;;;;;5052627;28;20021;-62
2021/11/03 04:06:13;;;;;;;37.00;25.73;;;;;;;;;;5053869;28;20067;-61
2021/11/03 04:08:40;;;;;;;56.47;35.33;;;;;;;;;;5053891;28;20057;-61
2021/11/03 04:11:06;;;;;;;106.28;63.00;;;;;;;;;;5053567;28;20044;-61
2021/11/03 04:13:33;;;;;;;103.40;70.18;;;;;;;;;;5053736;28;20123;-61
2021/11/03 04:15:59;;;;;;;67.63;44.92;;;;;;;;;;5053734;28;20024;-62
2021/11/03 04:18:26;;;;;;;39.83;26.70;;;;;;;;;;5053740;28;20492;-61
2021/11/03 04:20:52;;;;;;;35.55;23.75;;;;;;;;;;5053947;28;20056;-61
2021/11/03 04:23:18;;;;;;;33.28;23.00;;;;;;;;;;5053865;28;20131;-61
2021/11/03 04:25:45;;;;;;;28.48;20.27;;;;;;;;;;5053515;28;20071;-62
2021/11/03 04:28:11;;;;;;;31.50;20.10;;;;;;;;;;5053554;28;20108;-62
2021/11/03 04:30:38;;;;;;;31.17;18.90;;;;;;;;;;5053312;28;20501;-61
2021/11/03 04:33:05;;;;;;;25.58;17.95;;;;;;;;;;5053451;28;20032;-62
2021/11/03 04:35:32;;;;;;;27.05;19.25;;;;;;;;;;5053762;28;20472;-62
2021/11/03 04:37:58;;;;;;;27.80;18.75;;;;;;;;;;5053398;28;20028;-62
2021/11/03 04:40:25;;;;;;;31.25;19.75;;;;;;;;;;5051964;28;20060;-62
2021/11/03 04:42:52;;;;;;;33.75;18.67;;;;;;;;;;5052566;28;20025;-63
2021/11/03 04:45:19;;;;;;;30.90;17.83;;;;;;;;;;5052839;28;20540;-62
2021/11/03 04:47:46;;;;;;;30.02;18.65;;;;;;;;;;5053301;28;20029;-62
2021/11/03 04:50:16;;;;;;;37.08;23.20;;;;;;;;;;5051922;28;20028;-63
2021/11/03 04:52:44;;;;;;;33.13;20.50;;;;;;;;;;5053169;28;20115;-63
2021/11/03 04:55:10;;;;;;;34.22;22.67;;;;;;;;;;5052838;28;20104;-62
2021/11/03 04:57:36;;;;;;;41.33;23.85;;;;;;;;;;5051737;28;20116;-63
2021/11/03 05:00:06;;;;;;;41.33;24.15;;;;;;;;;;5053064;28;20021;-62
2021/11/03 05:02:32;;;;;;;45.63;23.52;;;;;;;;;;5048785;28;20028;-63
2021/11/03 05:04:58;;;;;;;36.80;21.30;;;;;;;;;;5051783;28;20033;-62
2021/11/03 05:07:25;;;;;;;30.63;19.50;;;;;;;;;;5050887;28;20099;-62
2021/11/03 05:09:51;;;;;;;30.70;19.33;;;;;;;;;;5051671;28;20021;-62
2021/11/03 05:12:17;;;;;;;26.02;18.05;;;;;;;;;;5052574;28;20166;-63
2021/11/03 05:14:43;;;;;;;31.52;20.55;;;;;;;;;;5052734;28;20052;-62
2021/11/03 05:17:10;;;;;;;30.33;19.42;;;;;;;;;;5052676;28;20124;-62
2021/11/03 05:19:36;;;;;;;31.17;20.48;;;;;;;;;;5051529;28;20028;-62
2021/11/03 05:22:04;;;;;;;41.15;23.15;;;;;;;;;;5052784;28;20032;-62
2021/11/03 05:24:31;;;;;;;33.63;20.58;;;;;;;;;;5051289;28;20021;-62
2021/11/03 05:26:59;;;;;;;33.78;20.55;;;;;;;;;;5052696;28;20017;-62
2021/11/03 05:29:25;;;;;;;34.08;21.15;;;;;;;;;;5051378;28;20017;-62
2021/11/03 05:31:51;;;;;;;32.00;19.52;;;;;;;;;;5050945;28;20510;-62
2021/11/03 05:34:18;;;;;;;33.15;21.02;;;;;;;;;;5052363;28;20577;-62
2021/11/03 05:36:44;;;;;;;42.10;25.27;;;;;;;;;;5052436;28;20367;-62
2021/11/03 05:39:12;;;;;;;35.58;23.52;;;;;;;;;;5051172;28;20056;-62
2021/11/03 05:41:39;;;;;;;29.30;20.40;;;;;;;;;;5052517;28;20129;-62
2021/11/03 05:44:13;;;;;;;33.65;22.35;;;;;;;;;;5052521;28;20032;-62
2021/11/03 05:46:43;;;;;;;37.58;24.80;;;;;;;;;;5052515;28;20029;-62
2021/11/03 05:49:12;;;;;;;43.28;27.17;;;;;;;;;;5052442;28;20029;-62
2021/11/03 05:51:39;;;;;;;47.92;34.88;;;;;;;;;;5052438;28;20017;-63
2021/11/03 05:54:05;;;;;;;41.05;26.30;;;;;;;;;;5053591;28;20048;-62
2021/11/03 05:56:32;;;;;;;49.13;34.55;;;;;;;;;;5056484;28;20057;-62
2021/11/03 05:58:59;;;;;;;38.72;25.13;;;;;;;;;;5056297;28;20103;-62
2021/11/03 06:01:26;;;;;;;36.28;24.10;;;;;;;;;;5055991;28;20494;-62
2021/11/03 06:03:53;;;;;;;38.63;27.38;;;;;;;;;;5056106;28;20036;-62
2021/11/03 06:06:19;;;;;;;97.45;69.65;;;;;;;;;;5055927;28;20480;-61
2021/11/03 06:08:46;;;;;;;89.13;61.95;;;;;;;;;;5054813;28;20436;-62
2021/11/03 06:11:14;;;;;;;67.93;46.75;;;;;;;;;;5055931;28;20025;-62
2021/11/03 06:13:41;;;;;;;190.52;132.07;;;;;;;;;;5056105;28;20028;-62
2021/11/03 06:16:07;;;;;;;50.53;34.50;;;;;;;;;;5055885;28;20029;-62
2021/11/03 06:18:34;;;;;;;46.10;27.33;;;;;;;;;;5054580;28;20021;-62
2021/11/03 06:21:00;;;;;;;49.85;25.60;;;;;;;;;;5055804;28;20104;-62
2021/11/03 06:23:26;;;;;;;51.70;25.95;;;;;;;;;;5055747;28;20067;-62
2021/11/03 06:25:52;;;;;;;47.10;25.98;;;;;;;;;;5054290;28;20029;-62
2021/11/03 06:28:19;;;;;;;50.63;28.25;;;;;;;;;;5055936;28;20558;-62
2021/11/03 06:30:45;;;;;;;51.45;26.48;;;;;;;;;;5055314;28;20077;-61
2021/11/03 06:33:12;;;;;;;56.90;27.73;;;;;;;;;;5055548;28;20103;-62
2021/11/03 06:35:39;;;;;;;55.08;26.73;;;;;;;;;;5055301;28;20037;-62
2021/11/03 06:38:06;;;;;;;54.22;28.92;;;;;;;;;;5055399;28;20103;-63
2021/11/03 06:40:33;;;;;;;71.25;35.88;;;;;;;;;;5055407;28;20477;-63
2021/11/03 06:42:59;;;;;;;61.20;32.30;;;;;;;;;;5055160;28;20036;-62
2021/11/03 06:45:26;;;;;;;59.60;31.73;;;;;;;;;;5054868;28;20358;-63
2021/11/03 06:47:53;;;;;;;62.40;28.55;;;;;;;;;;5053875;28;20021;-62
2021/11/03 06:50:24;;;;;;;53.95;28.05;;;;;;;;;;5055585;28;20033;-62
2021/11/03 06:52:51;;;;;;;69.72;31.38;;;;;;;;;;5053693;28;20434;-62
2021/11/03 06:55:18;;;;;;;53.45;28.45;;;;;;;;;;5053705;28;20025;-62
2021/11/03 06:57:44;;;;;;;63.33;37.20;;;;;;;;;;5055023;28;20523;-63
2021/11/03 07:00:13;;;;;;;93.03;50.63;;;;;;;;;;5054826;28;20039;-63
2021/11/03 07:02:39;;;;;;;61.47;33.72;;;;;;;;;;5053580;28;20028;-63
2021/11/03 07:05:06;;;;;;;61.53;31.77;;;;;;;;;;5053915;28;20064;-62
2021/11/03 07:07:32;;;;;;;66.20;33.70;;;;;;;;;;5054563;28;20028;-63
2021/11/03 07:09:59;;;;;;;62.35;32.33;;;;;;;;;;5054860;28;20055;-62
2021/11/03 07:12:25;;;;;;;60.05;29.13;;;;;;;;;;5054866;28;20127;-63
2021/11/03 07:14:52;;;;;;;54.45;28.83;;;;;;;;;;5054481;28;20029;-62
2021/11/03 07:17:18;;;;;;;53.58;27.95;;;;;;;;;;5054138;28;20028;-62
2021/11/03 07:19:44;;;;;;;53.10;27.40;;;;;;;;;;5054259;28;20021;-62
2021/11/03 07:22:11;;;;;;;54.67;28.15;;;;;;;;;;5054419;28;20029;-61
2021/11/03 07:24:37;;;;;;;53.05;27.55;;;;;;;;;;5053946;28;20499;-61
2021/11/03 07:27:03;;;;;;;50.40;28.40;;;;;;;;;;5052896;28;20040;-61
2021/11/03 07:29:29;;;;;;;66.60;33.70;;;;;;;;;;5054100;28;20037;-62
2021/11/03 07:31:55;;;;;;;49.33;26.85;;;;;;;;;;5054140;28;20045;-62
2021/11/03 07:34:22;;;;;;;50.38;28.15;;;;;;;;;;5053986;28;20140;-61
2021/11/03 07:36:49;;;;;;;51.25;30.17;;;;;;;;;;5054234;28;20060;-61
2021/11/03 07:39:15;;;;;;;48.85;28.88;;;;;;;;;;5054064;28;20021;-61
2021/11/03 07:41:41;;;;;;;88.63;51.20;;;;;;;;;;5054039;28;20031;-61
2021/11/03 07:44:08;;;;;;;107.25;65.00;;;;;;;;;;5053804;28;20323;-61
2021/11/03 07:46:35;;;;;;;66.95;35.70;;;;;;;;;;5053801;28;20365;-62
2021/11/03 07:49:01;;;;;;;55.40;31.83;;;;;;;;;;5053720;28;20028;-61
2021/11/03 07:51:27;;;;;;;54.95;32.10;;;;;;;;;;5053941;28;20021;-63
2021/11/03 07:53:58;;;;;;;60.17;32.10;;;;;;;;;;5053940;28;20108;-62
2021/11/03 07:56:25;;;;;;;52.80;30.37;;;;;;;;;;5053843;28;20025;-63
2021/11/03 07:58:52;;;;;;;67.53;31.90;;;;;;;;;;5053851;28;20021;-62
2021/11/03 08:01:19;;;;;;;56.17;32.42;;;;;;;;;;5053983;28;20020;-62
2021/11/03 08:03:45;;;;;;;59.10;33.28;;;;;;;;;;5052398;28;20159;-61
2021/11/03 08:06:11;;;;;;;58.22;33.17;;;;;;;;;;5053414;28;20056;-63
2021/11/03 08:08:42;;;;;;;52.33;32.20;;;;;;;;;;5053637;28;20044;-62
2021/11/03 08:11:09;;;;;;;58.15;32.95;;;;;;;;;;5053682;28;20017;-65
2021/11/03 08:13:36;;;;;;;70.38;35.92;;;;;;;;;;5053485;28;20540;-62
2021/11/03 08:16:03;;;;;;;62.17;35.72;;;;;;;;;;5053424;28;20112;-63
2021/11/03 08:18:31;;;;;;;66.47;35.55;;;;;;;;;;5052987;28;20512;-63
2021/11/03 08:20:57;;;;;;;65.18;37.25;;;;;;;;;;5053547;28;20063;-62
2021/11/03 08:23:24;;;;;;;61.72;36.75;;;;;;;;;;5053381;28;20032;-62
2021/11/03 08:25:50;;;;;;;73.40;40.53;;;;;;;;;;5050811;28;20063;-63
2021/11/03 08:28:16;;;;;;;68.50;38.95;;;;;;;;;;5053221;28;20060;-62
2021/11/03 08:30:46;;;;;;;61.50;38.78;;;;;;;;;;5053116;28;20045;-64
2021/11/03 08:33:16;;;;;;;64.90;37.65;;;;;;;;;;5053173;28;20021;-62
2021/11/03 08:35:43;;;;;;;65.05;37.70;;;;;;;;;;5053405;28;20115;-62
2021/11/03 08:38:12;;;;;;;71.13;42.20;;;;;;;;;;5053441;28;20461;-62
2021/11/03 08:40:38;;;;;;;83.15;50.85;;;;;;;;;;5053118;28;20021;-65
2021/11/03 08:43:06;;;;;;;77.78;47.45;;;;;;;;;;5052935;28;20036;-66
2021/11/03 08:45:33;;;;;;;61.88;39.08;;;;;;;;;;5052761;28;20115;-62
2021/11/03 08:48:00;;;;;;;64.00;36.78;;;;;;;;;;5050919;28;20017;-61
2021/11/03 08:50:28;;;;;;;55.53;34.67;;;;;;;;;;5051571;28;20477;-62
2021/11/03 08:52:55;;;;;;;68.50;40.42;;;;;;;;;;5052305;28;20025;-62
2021/11/03 08:55:21;;;;;;;55.22;32.60;;;;;;;;;;5052251;28;20122;-61
2021/11/03 08:57:48;;;;;;;55.17;31.92;;;;;;;;;;5051024;28;20045;-62
2021/11/03 09:00:21;;;;;;;54.70;32.75;;;13.00;99.90;;;;;;5051648;28;20139;-64
2021/11/03 09:02:49;;;;;;;51.17;31.77;;;13.10;99.90;;;;;;5052898;28;20027;-61
2021/11/03 09:05:15;;;;;;;46.08;29.23;;;13.20;99.90;;;;;;5052363;28;20029;-61
2021/11/03 09:07:42;;;;;;;42.35;28.58;;;13.40;99.90;;;;;;5052487;28;20474;-61
2021/11/03 09:10:11;;;;;;;49.22;30.83;;;13.50;99.90;;;;;;5055173;28;20033;-62
2021/11/03 09:12:38;;;;;;;46.67;27.83;;;13.60;99.90;;;;;;5059827;28;20397;-62
2021/11/03 09:15:09;;;;;;;37.95;26.67;;;13.80;99.90;;;;;;5069398;28;20162;-62
2021/11/03 09:17:36;;;;;;;44.53;29.27;;;13.80;99.90;;;;;;5066311;28;20025;-61
2021/11/03 09:20:09;;;;;;;39.63;26.48;;;14.00;99.90;;;;;;5055096;28;20104;-61
2021/11/03 09:22:37;;;;;;;40.88;28.15;;;14.20;99.90;;;;;;5061479;28;20028;-62
2021/11/03 09:25:08;;;;;;;40.25;26.88;;;14.30;99.90;;;;;;5061394;28;20028;-62
2021/11/03 09:27:35;;;;;;;34.80;24.60;;;14.40;99.90;;;;;;5048260;28;20134;-64
2021/11/03 09:30:01;;;;;;;36.03;23.98;;;14.40;99.90;;;;;;5058315;28;20036;-62
2021/11/03 09:32:28;;;;;;;35.80;24.85;;;14.50;99.90;;;;;;5056448;28;20426;-61
2021/11/03 09:34:54;;;;;;;39.60;24.55;;;14.60;99.90;;;;;;5056218;28;20113;-64
2021/11/03 09:37:23;;;;;;;39.35;25.50;;;14.60;99.90;;;;;;5055991;28;20115;-63
2021/11/03 09:39:53;;;;;;;36.78;23.45;;;14.80;99.90;;;;;;5056381;28;20052;-63
2021/11/03 09:42:21;;;;;;;35.85;24.77;;;15.00;99.90;;;;;;5056162;28;20021;-63
2021/11/03 09:44:50;;;;;;;38.00;25.75;;;15.00;99.90;;;;;;5056128;28;20470;-64
2021/11/03 09:47:22;;;;;;;40.15;23.65;;;15.20;99.90;;;;;;5054866;28;20044;-63
2021/11/03 09:50:01;;;;;;;40.78;24.27;;;15.30;99.90;;;;;;5054132;28;20044;-63
2021/11/03 09:52:37;;;;;;;41.58;23.77;;;15.40;99.90;;;;;;5042289;28;20025;-63
2021/11/03 09:55:21;;;;;;;40.10;23.85;;;15.50;99.90;;;;;;5055133;28;20368;-64
2021/11/03 09:57:51;;;;;;;39.22;24.95;;;15.50;99.90;;;;;;5054490;28;20103;-65
2021/11/03 10:00:17;;;;;;;40.55;24.83;;;15.60;99.90;;;;;;5052401;28;20024;-63
2021/11/03 10:02:58;;;;;;;42.83;24.65;;;15.80;99.90;;;;;;5055439;28;20025;-62
2021/11/03 10:05:43;;;;;;;39.00;23.70;;;16.10;99.90;;;;;;5053924;28;20036;-64
2021/11/03 10:08:22;;;;;;;42.22;26.55;;;16.50;99.90;;;;;;5054122;28;20037;-64
2021/11/03 10:11:05;;;;;;;39.28;23.25;;;16.90;99.90;;;;;;5054023;28;20037;-64
2021/11/03 10:13:36;;;;;;;32.33;20.42;;;16.90;99.90;;;;;;5054214;28;20051;-63
2021/11/03 10:16:11;;;;;;;35.38;21.65;;;16.90;99.90;;;;;;5056025;28;20479;-64
2021/11/03 10:19:02;;;;;;;34.53;21.80;;;17.20;99.90;;;;;;5055604;28;20037;-63
2021/11/03 10:21:31;;;;;;;35.58;21.75;;;17.60;99.90;;;;;;5055106;28;20021;-64
2021/11/03 10:24:23;;;;;;;36.67;21.35;;;17.90;99.90;;;;;;5055579;28;20025;-65
2021/11/03 10:27:00;;;;;;;30.83;19.20;;;18.50;99.90;;;;;;5055575;28;20086;-63
2021/11/03 10:29:31;;;;;;;33.63;21.10;;;18.40;99.90;;;;;;5033973;28;20040;-64
2021/11/03 10:32:08;;;;;;;37.00;22.20;;;18.40;99.90;;;;;;5034880;28;20058;-64
2021/11/03 10:34:33;;;;;;;34.67;20.88;;;18.50;99.90;;;;;;5034249;28;20501;-66
2021/11/03 10:37:05;;;;;;;33.40;20.52;;;19.10;99.70;;;;;;5035535;28;20073;-67
2021/11/03 10:39:41;;;;;;;;;;;19.60;98.00;;;;;;5051145;28;20107;-65
2021/11/03 10:42:24;;;;;;;27.75;18.77;;;20.00;95.90;;;;;;5054270;28;19962;-63
2021/11/03 10:45:10;;;;;;;36.30;20.60;;;19.60;94.50;;;;;;5054686;28;20163;-63
2021/11/03 10:47:37;;;;;;;30.88;20.52;;;20.10;95.30;;;;;;5054712;28;20037;-63
2021/11/03 10:50:24;;;;;;;29.48;17.52;;;20.60;92.60;;;;;;5054601;28;20025;-63
2021/11/03 10:52:57;;;;;;;32.25;19.25;;;21.40;90.90;;;;;;5033617;28;20052;-64
2021/11/03 10:55:26;;;;;;;30.27;17.90;;;21.30;90.60;;;;;;5033720;28;20038;-63
2021/11/03 10:58:24;;;;;;;28.08;17.95;;;20.40;92.00;;;;;;5035131;28;20040;-63
2021/11/03 11:01:11;;;;;;;27.45;18.48;;;19.80;93.30;;;;;;5026838;28;20077;-63
2021/11/03 11:03:57;;;;;;;26.85;16.45;;;19.40;93.60;;;;;;5035261;28;20108;-63
2021/11/03 11:06:30;;;;;;;27.60;17.20;;;19.90;93.70;;;;;;5069948;28;20052;-63
2021/11/03 11:08:58;;;;;;;36.20;21.73;;;22.00;89.60;;;;;;5074874;28;20040;-62
2021/11/03 11:11:28;;;;;;;40.25;18.77;;;21.40;86.90;;;;;;5066277;28;20426;-63
2021/11/03 11:14:01;;;;;;;30.10;18.23;;;20.60;89.00;;;;;;5074952;28;20025;-63
2021/11/03 11:16:45;;;;;;;24.08;15.27;;;20.50;90.20;;;;;;5054641;28;20425;-62
2021/11/03 11:19:21;;;;;;;25.13;15.05;;;20.00;91.60;;;;;;5070680;28;20085;-64
2021/11/03 11:22:01;;;;;;;27.92;19.10;;;19.70;91.60;;;;;;5072532;28;20447;-62
2021/11/03 11:25:34;;;;;;;39.55;26.00;;;19.20;92.30;;;;;;5073112;28;20036;-63
2021/11/03 11:28:21;;;;;;;28.15;17.90;;;19.10;92.60;;;;;;5011247;28;20046;-62
2021/11/03 11:30:52;;;;;;;29.83;16.35;;;19.20;92.30;;;;;;5011778;28;20113;-62
2021/11/03 11:33:28;;;;;;;28.20;13.95;;;19.00;92.70;;;;;;5051771;28;20041;-63
2021/11/03 11:36:27;;;;;;;19.48;11.93;;;18.80;92.70;;;;;;5073562;28;20043;-62
2021/11/03 11:38:55;;;;;;;18.83;11.40;;;18.70;93.30;;;;;;5073802;28;20094;-62
2021/11/03 11:42:03;;;;;;;21.00;11.50;;;18.70;93.70;;;;;;5074360;28;20085;-62
2021/11/03 11:44:50;;;;;;;18.98;11.02;;;18.60;99.50;;;;;;5074358;28;20021;-62
2021/11/03 11:47:24;;;;;;;18.75;10.95;;;17.50;99.90;;;;;;5074321;28;20036;-62
2021/11/03 11:49:52;;;;;;;22.75;12.25;;;18.60;93.70;;;;;;5074308;28;20073;-62
2021/11/03 11:52:25;;;;;;;20.35;10.93;;;18.70;94.50;;;;;;5073452;28;20074;-62
2021/11/03 11:55:19;;;;;;;21.83;11.05;;;18.60;94.30;;;;;;5073324;28;20021;-62
2021/11/03 11:58:23;;;;;;;17.40;9.60;;;18.70;94.90;;;;;;5073907;28;20033;-62
2021/11/03 12:01:18;;;;;;;22.73;10.13;;;18.70;93.70;;;;;;5061755;28;20439;-62
2021/11/03 12:03:51;;;;;;;21.02;8.18;;;19.10;98.10;;;;;;5074011;28;20430;-61
2021/11/03 12:06:17;;;;;;;16.25;8.00;;;19.30;99.90;;;;;;5073857;28;20038;-60
2021/11/03 12:08:55;;;;;;;23.83;8.70;;;19.30;99.90;;;;;;5073852;28;20033;-60
2021/11/03 12:11:44;;;;;;;20.20;8.88;;;19.40;99.90;;;;;;5073780;28;20476;-61
2021/11/03 12:14:25;;;;;;;21.17;8.75;;;19.30;97.60;;;;;;5073904;28;20364;-61
2021/11/03 12:16:55;;;;;;;16.65;6.75;;;19.40;97.50;;;;;;5072290;28;20396;-61
2021/11/03 12:19:36;;;;;;;21.40;7.82;;;19.60;95.40;;;;;;5073709;28;20032;-61
2021/11/03 12:22:08;;;;;;;25.13;7.85;;;20.10;99.90;;;;;;5073609;28;20058;-61
2021/11/03 12:24:42;;;;;;;19.25;8.27;;;19.50;98.20;;;;;;5073511;28;20028;-62
2021/11/03 12:27:23;;;;;;;13.75;6.90;;;;;;;;;;5072218;28;20037;-61
2021/11/03 12:29:55;;;;;;;9.75;4.20;;;;;;;;;;5073026;28;20032;-61
2021/11/03 12:32:25;;;;;;;14.57;5.40;;;;;;;;;;5073454;28;20056;-61
2021/11/03 12:34:59;;;;;;;16.27;6.00;;;19.50;99.90;;;;;;5073371;28;20024;-61
2021/11/03 12:37:28;;;;;;;11.52;5.25;;;;;;;;;;5073659;28;20419;-61
2021/11/03 12:40:01;;;;;;;10.30;5.47;;;19.70;99.30;;;;;;5073259;28;20112;-61
2021/11/03 12:42:32;;;;;;;15.63;6.28;;;19.10;93.60;;;;;;5073357;28;20032;-60
2021/11/03 12:45:10;;;;;;;11.93;5.43;;;19.30;93.40;;;;;;5073160;28;20020;-60
2021/11/03 12:47:56;;;;;;;15.13;5.72;;;19.00;92.00;;;;;;5073264;28;20040;-60
2021/11/03 12:50:27;;;;;;;19.77;6.55;;;19.00;91.90;;;;;;5073251;28;20029;-60
2021/11/03 12:53:23;;;;;;;14.48;5.80;;;19.10;92.30;;;;;;5073178;28;20025;-60
2021/11/03 12:56:02;;;;;;;11.15;6.03;;;19.20;99.90;;;;;;5064318;28;20056;-62
2021/11/03 12:58:34;;;;;;;14.90;7.05;;;19.10;97.00;;;;;;5073017;28;20028;-60
2021/11/03 13:01:03;;;;;;;20.10;8.70;;;19.20;94.20;;;;;;5072924;28;20365;-61
2021/11/03 13:03:32;;;;;;;14.13;7.35;;;19.20;93.90;;;;;;5072329;28;20023;-60
2021/11/03 13:06:00;;;;;;;19.60;7.45;;;19.10;98.40;;;;;;5072756;28;20024;-61
2021/11/03 13:08:27;;;;;;;14.63;7.40;;;;;;;;;;5072964;28;20500;-60
2021/11/03 13:11:11;;;;;;;17.45;7.65;;;19.40;99.90;;;;;;5072904;28;20032;-60
2021/11/03 13:13:54;;;;;;;15.75;7.50;;;19.10;94.30;;;;;;5072847;28;20029;-61
2021/11/03 13:16:25;;;;;;;25.30;9.77;;;19.50;99.90;;;;;;5072859;28;20035;-60
2021/11/03 13:18:52;;;;;;;20.27;11.15;;;19.10;93.40;;;;;;5072884;28;20020;-60
2021/11/03 13:21:22;;;;;;;13.85;7.85;;;19.10;93.00;;;;;;5072798;28;20028;-59
2021/11/03 13:23:50;;;;;;;39.15;16.13;;;19.10;95.00;;;;;;5072970;28;20104;-62
2021/11/03 13:26:27;;;;;;;29.80;14.15;;;19.00;93.00;;;;;;5071375;28;20481;-62
2021/11/03 13:28:54;;;;;;;38.28;15.65;;;19.00;92.80;;;;;;5048931;28;20476;-62
2021/11/03 13:31:38;;;;;;;37.70;17.05;;;19.00;92.70;;;;;;5051316;28;20116;-62
2021/11/03 13:34:06;;;;;;;33.53;17.10;;;19.00;92.50;;;;;;5052671;28;20033;-62
2021/11/03 13:36:32;;;;;;;38.65;16.80;;;19.00;93.00;;;;;;5052167;28;20039;-62
2021/11/03 13:39:04;;;;;;;35.88;14.50;;;19.00;92.90;;;;;;5051184;28;20403;-62
2021/11/03 13:41:40;;;;;;;33.13;15.20;;;19.00;92.40;;;;;;5048548;28;20021;-62
2021/11/03 13:44:27;;;;;;;27.80;12.65;;;19.00;92.20;;;;;;5049464;28;20021;-62
2021/11/03 13:47:06;;;;;;;32.83;12.68;;;19.00;91.90;;;;;;5050687;28;20461;-62
2021/11/03 13:49:42;;;;;;;32.08;13.93;;;19.00;92.20;;;;;;5050233;28;20032;-62
2021/11/03 13:52:23;;;;;;;46.17;17.45;;;18.90;92.30;;;;;;5048246;28;20029;-62
2021/11/03 13:54:54;;;;;;;40.35;16.23;;;18.80;92.30;;;;;;5052327;28;20048;-63
2021/11/03 13:57:46;;;;;;;40.00;16.65;;;18.80;92.10;;;;;;5051903;28;20064;-63